sensor_id;sensor_type;location;lat;lon;timestamp;temperature;humidity
44851;DHT22;30583;48.714;9.386;2023-07-24T00:00:20;24.90;52.20
44851;DHT22;30583;48.714;9.386;2023-07-24T00:02:46;24.70;52.40
44851;DHT22;30583;48.714;9.386;2023-07-24T00:05:12;24.40;53.30
44851;DHT22;30583;48.714;9.386;2023-07-24T00:07:37;24.20;53.80
44851;DHT22;30583;48.714;9.386;2023-07-24T00:10:04;24.00;54.40
44851;DHT22;30583;48.714;9.386;2023-07-24T00:12:29;24.10;54.50
44851;DHT22;30583;48.714;9.386;2023-07-24T00:14:55;24.50;53.30
44851;DHT22;30583;48.714;9.386;2023-07-24T00:17:21;24.70;52.90
44851;DHT22;30583;48.714;9.386;2023-07-24T00:19:46;24.70;52.30
44851;DHT22;30583;48.714;9.386;2023-07-24T00:22:12;24.70;51.60
44851;DHT22;30583;48.714;9.386;2023-07-24T00:24:37;24.90;51.90
44851;DHT22;30583;48.714;9.386;2023-07-24T00:27:03;24.80;52.20
44851;DHT22;30583;48.714;9.386;2023-07-24T00:29:29;24.90;51.90
44851;DHT22;30583;48.714;9.386;2023-07-24T00:31:54;24.70;52.70
44851;DHT22;30583;48.714;9.386;2023-07-24T00:34:20;24.70;52.80
44851;DHT22;30583;48.714;9.386;2023-07-24T00:36:45;24.90;52.30
44851;DHT22;30583;48.714;9.386;2023-07-24T00:39:13;24.60;52.80
44851;DHT22;30583;48.714;9.386;2023-07-24T00:41:39;24.80;52.20
44851;DHT22;30583;48.714;9.386;2023-07-24T00:44:05;24.80;52.10
44851;DHT22;30583;48.714;9.386;2023-07-24T00:46:30;24.90;51.90
44851;DHT22;30583;48.714;9.386;2023-07-24T00:48:58;24.90;52.00
44851;DHT22;30583;48.714;9.386;2023-07-24T00:51:26;24.90;51.80
44851;DHT22;30583;48.714;9.386;2023-07-24T00:53:54;25.10;51.50
44851;DHT22;30583;48.714;9.386;2023-07-24T00:56:21;25.20;51.30
44851;DHT22;30583;48.714;9.386;2023-07-24T00:58:47;25.30;51.00
44851;DHT22;30583;48.714;9.386;2023-07-24T01:01:15;25.40;50.70
44851;DHT22;30583;48.714;9.386;2023-07-24T01:03:41;25.50;50.70
44851;DHT22;30583;48.714;9.386;2023-07-24T01:06:09;25.10;51.20
44851;DHT22;30583;48.714;9.386;2023-07-24T01:08:35;24.70;52.40
44851;DHT22;30583;48.714;9.386;2023-07-24T01:11:14;25.00;51.80
44851;DHT22;30583;48.714;9.386;2023-07-24T01:13:44;25.20;51.00
44851;DHT22;30583;48.714;9.386;2023-07-24T01:16:18;25.10;51.20
44851;DHT22;30583;48.714;9.386;2023-07-24T01:18:45;25.20;50.10
44851;DHT22;30583;48.714;9.386;2023-07-24T01:21:12;24.80;50.90
44851;DHT22;30583;48.714;9.386;2023-07-24T01:26:16;25.30;49.30
44851;DHT22;30583;48.714;9.386;2023-07-24T01:28:41;24.70;50.00
44851;DHT22;30583;48.714;9.386;2023-07-24T01:31:07;24.90;49.90
44851;DHT22;30583;48.714;9.386;2023-07-24T01:33:33;25.10;49.20
44851;DHT22;30583;48.714;9.386;2023-07-24T01:36:02;24.80;49.90
44851;DHT22;30583;48.714;9.386;2023-07-24T01:38:28;24.60;50.60
44851;DHT22;30583;48.714;9.386;2023-07-24T01:40:56;25.10;49.50
44851;DHT22;30583;48.714;9.386;2023-07-24T01:43:22;24.80;49.90
44851;DHT22;30583;48.714;9.386;2023-07-24T01:45:48;24.70;49.90
44851;DHT22;30583;48.714;9.386;2023-07-24T01:48:13;25.20;48.90
44851;DHT22;30583;48.714;9.386;2023-07-24T01:50:39;25.40;48.60
44851;DHT22;30583;48.714;9.386;2023-07-24T01:53:05;25.20;49.10
44851;DHT22;30583;48.714;9.386;2023-07-24T01:55:30;25.20;49.00
44851;DHT22;30583;48.714;9.386;2023-07-24T01:57:56;24.60;51.00
44851;DHT22;30583;48.714;9.386;2023-07-24T02:00:21;24.70;50.80
44851;DHT22;30583;48.714;9.386;2023-07-24T02:02:47;24.70;50.80
44851;DHT22;30583;48.714;9.386;2023-07-24T02:05:13;23.60;52.90
44851;DHT22;30583;48.714;9.386;2023-07-24T02:07:38;23.40;53.60
44851;DHT22;30583;48.714;9.386;2023-07-24T02:10:04;23.50;53.20
44851;DHT22;30583;48.714;9.386;2023-07-24T02:12:30;22.70;55.20
44851;DHT22;30583;48.714;9.386;2023-07-24T02:14:55;23.10;54.40
44851;DHT22;30583;48.714;9.386;2023-07-24T02:17:23;23.20;53.90
44851;DHT22;30583;48.714;9.386;2023-07-24T02:19:49;23.10;54.20
44851;DHT22;30583;48.714;9.386;2023-07-24T02:22:15;22.90;55.00
44851;DHT22;30583;48.714;9.386;2023-07-24T02:24:40;23.00;54.80
44851;DHT22;30583;48.714;9.386;2023-07-24T02:27:06;22.70;55.40
44851;DHT22;30583;48.714;9.386;2023-07-24T02:29:32;22.70;55.80
44851;DHT22;30583;48.714;9.386;2023-07-24T02:31:59;22.60;56.00
44851;DHT22;30583;48.714;9.386;2023-07-24T02:34:24;22.80;55.40
44851;DHT22;30583;48.714;9.386;2023-07-24T02:36:55;22.80;55.20
44851;DHT22;30583;48.714;9.386;2023-07-24T02:39:21;22.70;55.50
44851;DHT22;30583;48.714;9.386;2023-07-24T02:41:50;22.70;55.50
44851;DHT22;30583;48.714;9.386;2023-07-24T02:44:15;22.80;55.10
44851;DHT22;30583;48.714;9.386;2023-07-24T02:46:41;22.90;55.00
44851;DHT22;30583;48.714;9.386;2023-07-24T02:49:07;22.70;55.70
44851;DHT22;30583;48.714;9.386;2023-07-24T02:51:33;22.70;56.00
44851;DHT22;30583;48.714;9.386;2023-07-24T02:53:58;22.70;56.20
44851;DHT22;30583;48.714;9.386;2023-07-24T02:56:24;22.60;56.30
44851;DHT22;30583;48.714;9.386;2023-07-24T02:58:49;22.70;56.30
44851;DHT22;30583;48.714;9.386;2023-07-24T03:01:15;22.60;56.70
44851;DHT22;30583;48.714;9.386;2023-07-24T03:03:41;22.50;56.80
44851;DHT22;30583;48.714;9.386;2023-07-24T03:06:07;22.40;56.80
44851;DHT22;30583;48.714;9.386;2023-07-24T03:08:32;22.40;56.90
44851;DHT22;30583;48.714;9.386;2023-07-24T03:10:59;22.30;57.00
44851;DHT22;30583;48.714;9.386;2023-07-24T03:13:24;22.30;57.10
44851;DHT22;30583;48.714;9.386;2023-07-24T03:15:56;22.20;57.40
44851;DHT22;30583;48.714;9.386;2023-07-24T03:18:23;22.20;57.60
44851;DHT22;30583;48.714;9.386;2023-07-24T03:20:48;22.20;57.50
44851;DHT22;30583;48.714;9.386;2023-07-24T03:23:14;22.20;57.80
44851;DHT22;30583;48.714;9.386;2023-07-24T03:25:40;22.20;57.70
44851;DHT22;30583;48.714;9.386;2023-07-24T03:28:06;22.20;58.00
44851;DHT22;30583;48.714;9.386;2023-07-24T03:30:31;22.10;58.30
44851;DHT22;30583;48.714;9.386;2023-07-24T03:32:57;22.00;58.40
44851;DHT22;30583;48.714;9.386;2023-07-24T03:35:23;22.00;58.50
44851;DHT22;30583;48.714;9.386;2023-07-24T03:37:48;22.10;58.40
44851;DHT22;30583;48.714;9.386;2023-07-24T03:40:14;21.70;59.40
44851;DHT22;30583;48.714;9.386;2023-07-24T03:42:41;21.70;59.90
44851;DHT22;30583;48.714;9.386;2023-07-24T03:45:07;21.90;59.20
44851;DHT22;30583;48.714;9.386;2023-07-24T03:47:33;21.90;59.20
44851;DHT22;30583;48.714;9.386;2023-07-24T03:49:59;21.60;59.90
44851;DHT22;30583;48.714;9.386;2023-07-24T03:52:24;21.70;59.60
44851;DHT22;30583;48.714;9.386;2023-07-24T03:54:51;21.60;59.80
44851;DHT22;30583;48.714;9.386;2023-07-24T03:57:17;21.70;59.50
44851;DHT22;30583;48.714;9.386;2023-07-24T03:59:43;21.60;60.00
44851;DHT22;30583;48.714;9.386;2023-07-24T04:02:09;21.60;59.90
44851;DHT22;30583;48.714;9.386;2023-07-24T04:04:34;21.70;59.60
44851;DHT22;30583;48.714;9.386;2023-07-24T04:07:00;21.40;60.00
44851;DHT22;30583;48.714;9.386;2023-07-24T04:09:26;21.20;60.80
44851;DHT22;30583;48.714;9.386;2023-07-24T04:11:52;21.50;59.80
44851;DHT22;30583;48.714;9.386;2023-07-24T04:14:17;21.70;59.00
44851;DHT22;30583;48.714;9.386;2023-07-24T04:16:43;21.70;59.10
44851;DHT22;30583;48.714;9.386;2023-07-24T04:19:08;21.90;59.30
44851;DHT22;30583;48.714;9.386;2023-07-24T04:21:34;21.90;59.50
44851;DHT22;30583;48.714;9.386;2023-07-24T04:23:59;21.80;59.80
44851;DHT22;30583;48.714;9.386;2023-07-24T04:26:25;21.50;61.00
44851;DHT22;30583;48.714;9.386;2023-07-24T04:28:50;21.60;61.00
44851;DHT22;30583;48.714;9.386;2023-07-24T04:31:16;21.70;60.70
44851;DHT22;30583;48.714;9.386;2023-07-24T04:33:42;21.70;60.50
44851;DHT22;30583;48.714;9.386;2023-07-24T04:36:07;21.70;60.30
44851;DHT22;30583;48.714;9.386;2023-07-24T04:38:33;21.80;59.90
44851;DHT22;30583;48.714;9.386;2023-07-24T04:41:00;21.60;60.00
44851;DHT22;30583;48.714;9.386;2023-07-24T04:43:27;21.70;60.00
44851;DHT22;30583;48.714;9.386;2023-07-24T04:45:52;21.70;59.70
44851;DHT22;30583;48.714;9.386;2023-07-24T04:48:18;21.70;59.20
44851;DHT22;30583;48.714;9.386;2023-07-24T04:50:44;21.80;58.80
44851;DHT22;30583;48.714;9.386;2023-07-24T04:53:09;21.80;58.40
44851;DHT22;30583;48.714;9.386;2023-07-24T04:55:35;21.80;58.40
44851;DHT22;30583;48.714;9.386;2023-07-24T04:58:00;21.80;58.60
44851;DHT22;30583;48.714;9.386;2023-07-24T05:00:26;21.80;58.60
44851;DHT22;30583;48.714;9.386;2023-07-24T05:02:52;21.90;58.60
44851;DHT22;30583;48.714;9.386;2023-07-24T05:05:17;21.90;58.60
44851;DHT22;30583;48.714;9.386;2023-07-24T05:07:43;21.90;58.90
44851;DHT22;30583;48.714;9.386;2023-07-24T05:10:09;21.90;58.80
44851;DHT22;30583;48.714;9.386;2023-07-24T05:12:34;22.00;58.70
44851;DHT22;30583;48.714;9.386;2023-07-24T05:15:00;22.00;58.80
44851;DHT22;30583;48.714;9.386;2023-07-24T05:17:25;22.10;58.90
44851;DHT22;30583;48.714;9.386;2023-07-24T05:19:51;21.90;59.50
44851;DHT22;30583;48.714;9.386;2023-07-24T05:22:16;22.10;59.40
44851;DHT22;30583;48.714;9.386;2023-07-24T05:24:42;21.90;60.20
44851;DHT22;30583;48.714;9.386;2023-07-24T05:27:08;22.00;60.10
44851;DHT22;30583;48.714;9.386;2023-07-24T05:29:33;22.10;60.00
44851;DHT22;30583;48.714;9.386;2023-07-24T05:31:59;22.00;60.00
44851;DHT22;30583;48.714;9.386;2023-07-24T05:34:25;21.90;60.20
44851;DHT22;30583;48.714;9.386;2023-07-24T05:36:51;22.10;59.80
44851;DHT22;30583;48.714;9.386;2023-07-24T05:39:16;22.00;60.20
44851;DHT22;30583;48.714;9.386;2023-07-24T05:41:43;22.20;60.00
44851;DHT22;30583;48.714;9.386;2023-07-24T05:44:09;22.10;60.20
44851;DHT22;30583;48.714;9.386;2023-07-24T05:46:34;22.10;60.30
44851;DHT22;30583;48.714;9.386;2023-07-24T05:49:00;22.20;60.00
44851;DHT22;30583;48.714;9.386;2023-07-24T05:51:27;22.30;59.60
44851;DHT22;30583;48.714;9.386;2023-07-24T05:53:52;22.20;59.90
44851;DHT22;30583;48.714;9.386;2023-07-24T05:56:18;22.10;60.10
44851;DHT22;30583;48.714;9.386;2023-07-24T05:58:44;22.20;60.20
44851;DHT22;30583;48.714;9.386;2023-07-24T06:01:10;22.20;60.00
44851;DHT22;30583;48.714;9.386;2023-07-24T06:03:36;22.20;60.10
44851;DHT22;30583;48.714;9.386;2023-07-24T06:06:02;22.20;60.50
44851;DHT22;30583;48.714;9.386;2023-07-24T06:08:27;22.20;60.50
44851;DHT22;30583;48.714;9.386;2023-07-24T06:10:53;22.20;60.60
44851;DHT22;30583;48.714;9.386;2023-07-24T06:13:19;22.10;60.70
44851;DHT22;30583;48.714;9.386;2023-07-24T06:15:47;22.10;60.90
44851;DHT22;30583;48.714;9.386;2023-07-24T06:18:13;22.20;60.70
44851;DHT22;30583;48.714;9.386;2023-07-24T06:20:38;22.10;60.80
44851;DHT22;30583;48.714;9.386;2023-07-24T06:23:04;22.20;60.40
44851;DHT22;30583;48.714;9.386;2023-07-24T06:25:30;22.20;60.90
44851;DHT22;30583;48.714;9.386;2023-07-24T06:27:56;22.20;60.60
44851;DHT22;30583;48.714;9.386;2023-07-24T06:30:22;22.30;59.90
44851;DHT22;30583;48.714;9.386;2023-07-24T06:32:48;22.20;60.50
44851;DHT22;30583;48.714;9.386;2023-07-24T06:35:13;22.00;60.90
44851;DHT22;30583;48.714;9.386;2023-07-24T06:37:39;22.20;60.30
44851;DHT22;30583;48.714;9.386;2023-07-24T06:40:06;22.10;61.30
44851;DHT22;30583;48.714;9.386;2023-07-24T06:42:32;22.20;60.80
44851;DHT22;30583;48.714;9.386;2023-07-24T06:44:58;22.30;60.60
44851;DHT22;30583;48.714;9.386;2023-07-24T06:47:24;22.30;60.70
44851;DHT22;30583;48.714;9.386;2023-07-24T06:49:49;22.30;60.60
44851;DHT22;30583;48.714;9.386;2023-07-24T06:52:15;22.40;60.10
44851;DHT22;30583;48.714;9.386;2023-07-24T06:54:40;22.20;60.60
44851;DHT22;30583;48.714;9.386;2023-07-24T06:57:06;22.20;60.20
44851;DHT22;30583;48.714;9.386;2023-07-24T06:59:32;22.00;61.10
44851;DHT22;30583;48.714;9.386;2023-07-24T07:01:57;22.10;61.40
44851;DHT22;30583;48.714;9.386;2023-07-24T07:04:23;22.20;60.70
44851;DHT22;30583;48.714;9.386;2023-07-24T07:06:48;22.20;60.50
44851;DHT22;30583;48.714;9.386;2023-07-24T07:09:14;22.20;60.10
44851;DHT22;30583;48.714;9.386;2023-07-24T07:11:39;22.40;59.30
44851;DHT22;30583;48.714;9.386;2023-07-24T07:14:05;22.10;60.40
44851;DHT22;30583;48.714;9.386;2023-07-24T07:16:34;22.30;59.70
44851;DHT22;30583;48.714;9.386;2023-07-24T07:18:59;22.20;59.90
44851;DHT22;30583;48.714;9.386;2023-07-24T07:21:25;22.00;60.30
44851;DHT22;30583;48.714;9.386;2023-07-24T07:23:51;22.20;59.70
44851;DHT22;30583;48.714;9.386;2023-07-24T07:26:16;22.00;60.70
44851;DHT22;30583;48.714;9.386;2023-07-24T07:28:42;21.90;61.10
44851;DHT22;30583;48.714;9.386;2023-07-24T07:31:08;21.60;61.90
44851;DHT22;30583;48.714;9.386;2023-07-24T07:33:33;21.70;62.10
44851;DHT22;30583;48.714;9.386;2023-07-24T07:35:59;22.00;61.20
44851;DHT22;30583;48.714;9.386;2023-07-24T07:38:24;22.00;61.20
44851;DHT22;30583;48.714;9.386;2023-07-24T07:40:50;22.40;60.40
44851;DHT22;30583;48.714;9.386;2023-07-24T07:43:16;22.50;60.10
44851;DHT22;30583;48.714;9.386;2023-07-24T07:45:41;22.40;59.80
44851;DHT22;30583;48.714;9.386;2023-07-24T07:48:07;22.40;59.60
44851;DHT22;30583;48.714;9.386;2023-07-24T07:50:32;22.70;59.00
44851;DHT22;30583;48.714;9.386;2023-07-24T07:52:58;22.80;59.10
44851;DHT22;30583;48.714;9.386;2023-07-24T07:55:23;22.80;59.10
44851;DHT22;30583;48.714;9.386;2023-07-24T07:57:49;22.80;59.10
44851;DHT22;30583;48.714;9.386;2023-07-24T08:00:15;23.10;58.50
44851;DHT22;30583;48.714;9.386;2023-07-24T08:02:40;23.00;58.70
44851;DHT22;30583;48.714;9.386;2023-07-24T08:05:10;22.90;58.60
44851;DHT22;30583;48.714;9.386;2023-07-24T08:07:36;23.00;57.70
44851;DHT22;30583;48.714;9.386;2023-07-24T08:10:03;22.80;58.00
44851;DHT22;30583;48.714;9.386;2023-07-24T08:12:29;23.10;57.50
44851;DHT22;30583;48.714;9.386;2023-07-24T08:14:55;23.10;57.00
44851;DHT22;30583;48.714;9.386;2023-07-24T08:17:21;23.30;56.90
44851;DHT22;30583;48.714;9.386;2023-07-24T08:19:47;23.30;56.40
44851;DHT22;30583;48.714;9.386;2023-07-24T08:22:13;23.30;56.30
44851;DHT22;30583;48.714;9.386;2023-07-24T08:24:38;23.30;56.60
44851;DHT22;30583;48.714;9.386;2023-07-24T08:27:04;23.30;57.00
44851;DHT22;30583;48.714;9.386;2023-07-24T08:29:30;23.50;54.90
44851;DHT22;30583;48.714;9.386;2023-07-24T08:31:55;23.20;59.10
44851;DHT22;30583;48.714;9.386;2023-07-24T08:34:21;22.70;61.80
44851;DHT22;30583;48.714;9.386;2023-07-24T08:36:46;23.00;62.20
44851;DHT22;30583;48.714;9.386;2023-07-24T08:39:12;22.60;63.40
44851;DHT22;30583;48.714;9.386;2023-07-24T08:41:37;22.60;64.80
44851;DHT22;30583;48.714;9.386;2023-07-24T08:44:12;22.30;66.10
44851;DHT22;30583;48.714;9.386;2023-07-24T08:46:39;22.20;66.80
44851;DHT22;30583;48.714;9.386;2023-07-24T08:49:13;22.10;68.60
44851;DHT22;30583;48.714;9.386;2023-07-24T08:51:40;22.20;67.90
44851;DHT22;30583;48.714;9.386;2023-07-24T08:54:06;22.40;66.60
44851;DHT22;30583;48.714;9.386;2023-07-24T08:56:33;23.00;65.00
44851;DHT22;30583;48.714;9.386;2023-07-24T08:58:58;23.20;63.10
44851;DHT22;30583;48.714;9.386;2023-07-24T09:01:25;23.30;62.50
44851;DHT22;30583;48.714;9.386;2023-07-24T09:03:50;23.50;64.40
44851;DHT22;30583;48.714;9.386;2023-07-24T09:06:16;22.80;65.50
44851;DHT22;30583;48.714;9.386;2023-07-24T09:08:43;23.10;66.00
44851;DHT22;30583;48.714;9.386;2023-07-24T09:11:10;22.80;67.90
44851;DHT22;30583;48.714;9.386;2023-07-24T09:13:37;23.00;66.30
44851;DHT22;30583;48.714;9.386;2023-07-24T09:16:03;23.20;66.10
44851;DHT22;30583;48.714;9.386;2023-07-24T09:18:42;22.70;66.90
44851;DHT22;30583;48.714;9.386;2023-07-24T09:21:09;22.90;65.60
44851;DHT22;30583;48.714;9.386;2023-07-24T09:23:35;23.20;65.10
44851;DHT22;30583;48.714;9.386;2023-07-24T09:26:05;23.30;64.20
44851;DHT22;30583;48.714;9.386;2023-07-24T09:28:33;23.30;65.30
44851;DHT22;30583;48.714;9.386;2023-07-24T09:30:59;23.20;64.40
44851;DHT22;30583;48.714;9.386;2023-07-24T09:33:36;23.60;63.50
44851;DHT22;30583;48.714;9.386;2023-07-24T09:36:03;23.50;63.90
44851;DHT22;30583;48.714;9.386;2023-07-24T09:38:29;23.60;64.60
44851;DHT22;30583;48.714;9.386;2023-07-24T09:40:56;23.60;64.80
44851;DHT22;30583;48.714;9.386;2023-07-24T09:43:24;23.50;65.60
44851;DHT22;30583;48.714;9.386;2023-07-24T09:45:51;23.50;64.30
44851;DHT22;30583;48.714;9.386;2023-07-24T09:48:18;23.40;64.80
44851;DHT22;30583;48.714;9.386;2023-07-24T09:50:48;23.30;64.50
44851;DHT22;30583;48.714;9.386;2023-07-24T09:53:32;23.50;63.60
44851;DHT22;30583;48.714;9.386;2023-07-24T09:56:04;23.50;63.50
44851;DHT22;30583;48.714;9.386;2023-07-24T09:58:32;23.40;65.40
44851;DHT22;30583;48.714;9.386;2023-07-24T10:01:01;23.20;67.70
44851;DHT22;30583;48.714;9.386;2023-07-24T10:03:27;23.10;67.20
44851;DHT22;30583;48.714;9.386;2023-07-24T10:05:53;23.20;65.70
44851;DHT22;30583;48.714;9.386;2023-07-24T10:08:19;23.30;65.20
44851;DHT22;30583;48.714;9.386;2023-07-24T10:10:45;23.20;68.20
44851;DHT22;30583;48.714;9.386;2023-07-24T10:13:12;23.20;69.40
44851;DHT22;30583;48.714;9.386;2023-07-24T10:15:44;23.00;69.50
44851;DHT22;30583;48.714;9.386;2023-07-24T10:18:10;23.00;70.10
44851;DHT22;30583;48.714;9.386;2023-07-24T10:20:39;23.10;69.40
44851;DHT22;30583;48.714;9.386;2023-07-24T10:23:07;23.10;69.20
44851;DHT22;30583;48.714;9.386;2023-07-24T10:25:34;23.00;68.90
44851;DHT22;30583;48.714;9.386;2023-07-24T10:28:11;22.90;69.60
44851;DHT22;30583;48.714;9.386;2023-07-24T10:30:41;23.00;69.00
44851;DHT22;30583;48.714;9.386;2023-07-24T10:33:30;22.90;69.30
44851;DHT22;30583;48.714;9.386;2023-07-24T10:36:07;22.60;69.70
44851;DHT22;30583;48.714;9.386;2023-07-24T10:38:40;22.70;70.70
44851;DHT22;30583;48.714;9.386;2023-07-24T10:41:08;22.60;72.40
44851;DHT22;30583;48.714;9.386;2023-07-24T10:44:00;22.10;74.60
44851;DHT22;30583;48.714;9.386;2023-07-24T10:46:44;22.00;72.70
44851;DHT22;30583;48.714;9.386;2023-07-24T10:49:09;22.40;72.90
44851;DHT22;30583;48.714;9.386;2023-07-24T10:51:35;22.50;72.20
44851;DHT22;30583;48.714;9.386;2023-07-24T10:54:03;22.30;71.90
44851;DHT22;30583;48.714;9.386;2023-07-24T10:56:30;22.30;71.90
44851;DHT22;30583;48.714;9.386;2023-07-24T10:58:56;22.20;72.20
44851;DHT22;30583;48.714;9.386;2023-07-24T11:01:21;22.20;72.00
44851;DHT22;30583;48.714;9.386;2023-07-24T11:03:50;21.90;72.50
44851;DHT22;30583;48.714;9.386;2023-07-24T11:06:20;21.50;74.20
44851;DHT22;30583;48.714;9.386;2023-07-24T11:08:54;21.60;74.00
44851;DHT22;30583;48.714;9.386;2023-07-24T11:11:30;21.40;75.30
44851;DHT22;30583;48.714;9.386;2023-07-24T11:13:55;21.70;74.90
44851;DHT22;30583;48.714;9.386;2023-07-24T11:16:21;21.30;74.00
44851;DHT22;30583;48.714;9.386;2023-07-24T11:18:49;21.20;75.50
44851;DHT22;30583;48.714;9.386;2023-07-24T11:21:15;21.30;74.50
44851;DHT22;30583;48.714;9.386;2023-07-24T11:23:51;21.80;73.50
44851;DHT22;30583;48.714;9.386;2023-07-24T11:26:20;21.80;74.00
44851;DHT22;30583;48.714;9.386;2023-07-24T11:28:46;21.50;74.20
44851;DHT22;30583;48.714;9.386;2023-07-24T11:31:12;21.20;75.70
44851;DHT22;30583;48.714;9.386;2023-07-24T11:33:38;21.30;76.00
44851;DHT22;30583;48.714;9.386;2023-07-24T11:36:04;21.60;72.20
44851;DHT22;30583;48.714;9.386;2023-07-24T11:38:30;21.90;72.50
44851;DHT22;30583;48.714;9.386;2023-07-24T11:40:56;22.00;71.20
44851;DHT22;30583;48.714;9.386;2023-07-24T11:43:23;21.60;73.70
44851;DHT22;30583;48.714;9.386;2023-07-24T11:45:51;22.40;69.20
44851;DHT22;30583;48.714;9.386;2023-07-24T11:48:22;22.10;72.10
44851;DHT22;30583;48.714;9.386;2023-07-24T11:50:53;21.80;74.30
44851;DHT22;30583;48.714;9.386;2023-07-24T11:55:47;21.90;75.10
44851;DHT22;30583;48.714;9.386;2023-07-24T11:58:15;22.50;73.90
44851;DHT22;30583;48.714;9.386;2023-07-24T12:00:41;22.30;74.60
44851;DHT22;30583;48.714;9.386;2023-07-24T12:03:07;23.10;69.70
44851;DHT22;30583;48.714;9.386;2023-07-24T12:05:43;22.60;70.90
44851;DHT22;30583;48.714;9.386;2023-07-24T12:08:10;22.70;70.20
44851;DHT22;30583;48.714;9.386;2023-07-24T12:10:39;22.90;71.20
44851;DHT22;30583;48.714;9.386;2023-07-24T12:13:06;22.40;70.90
44851;DHT22;30583;48.714;9.386;2023-07-24T12:15:31;22.50;72.20
44851;DHT22;30583;48.714;9.386;2023-07-24T12:17:59;22.40;71.50
44851;DHT22;30583;48.714;9.386;2023-07-24T12:20:25;22.60;72.10
44851;DHT22;30583;48.714;9.386;2023-07-24T12:22:50;22.80;72.30
44851;DHT22;30583;48.714;9.386;2023-07-24T12:25:16;22.90;70.50
44851;DHT22;30583;48.714;9.386;2023-07-24T12:27:42;23.20;71.70
44851;DHT22;30583;48.714;9.386;2023-07-24T12:30:08;23.40;71.50
44851;DHT22;30583;48.714;9.386;2023-07-24T12:32:34;23.40;70.10
44851;DHT22;30583;48.714;9.386;2023-07-24T12:35:00;23.00;71.10
44851;DHT22;30583;48.714;9.386;2023-07-24T12:37:25;23.20;70.10
44851;DHT22;30583;48.714;9.386;2023-07-24T12:39:51;23.20;69.70
44851;DHT22;30583;48.714;9.386;2023-07-24T12:42:17;23.10;70.10
44851;DHT22;30583;48.714;9.386;2023-07-24T12:44:43;23.50;69.40
44851;DHT22;30583;48.714;9.386;2023-07-24T12:47:10;23.60;70.20
44851;DHT22;30583;48.714;9.386;2023-07-24T12:49:36;23.60;69.50
44851;DHT22;30583;48.714;9.386;2023-07-24T12:52:02;23.90;68.40
44851;DHT22;30583;48.714;9.386;2023-07-24T12:54:28;23.60;68.60
44851;DHT22;30583;48.714;9.386;2023-07-24T12:56:54;23.40;68.20
44851;DHT22;30583;48.714;9.386;2023-07-24T12:59:19;23.30;68.10
44851;DHT22;30583;48.714;9.386;2023-07-24T13:01:45;23.40;68.80
44851;DHT22;30583;48.714;9.386;2023-07-24T13:04:11;23.40;69.10
44851;DHT22;30583;48.714;9.386;2023-07-24T13:06:37;23.40;69.60
44851;DHT22;30583;48.714;9.386;2023-07-24T13:09:03;23.40;68.80
44851;DHT22;30583;48.714;9.386;2023-07-24T13:11:29;23.50;68.10
44851;DHT22;30583;48.714;9.386;2023-07-24T13:13:55;23.60;68.50
44851;DHT22;30583;48.714;9.386;2023-07-24T13:16:21;23.30;66.60
44851;DHT22;30583;48.714;9.386;2023-07-24T13:18:47;23.60;67.20
44851;DHT22;30583;48.714;9.386;2023-07-24T13:21:12;23.70;66.80
44851;DHT22;30583;48.714;9.386;2023-07-24T13:23:39;23.40;67.50
44851;DHT22;30583;48.714;9.386;2023-07-24T13:26:05;23.50;68.00
44851;DHT22;30583;48.714;9.386;2023-07-24T13:28:31;23.50;66.70
44851;DHT22;30583;48.714;9.386;2023-07-24T13:30:56;23.40;66.30
44851;DHT22;30583;48.714;9.386;2023-07-24T13:33:22;23.40;66.70
44851;DHT22;30583;48.714;9.386;2023-07-24T13:35:48;23.40;66.50
44851;DHT22;30583;48.714;9.386;2023-07-24T13:38:15;23.40;66.30
44851;DHT22;30583;48.714;9.386;2023-07-24T13:40:41;23.80;65.00
44851;DHT22;30583;48.714;9.386;2023-07-24T13:43:07;23.90;64.90
44851;DHT22;30583;48.714;9.386;2023-07-24T13:45:32;23.70;64.10
44851;DHT22;30583;48.714;9.386;2023-07-24T13:47:58;23.60;63.80
44851;DHT22;30583;48.714;9.386;2023-07-24T13:50:24;23.70;64.20
44851;DHT22;30583;48.714;9.386;2023-07-24T13:52:49;23.50;63.90
44851;DHT22;30583;48.714;9.386;2023-07-24T13:55:15;23.40;63.30
44851;DHT22;30583;48.714;9.386;2023-07-24T13:57:41;23.60;63.20
44851;DHT22;30583;48.714;9.386;2023-07-24T14:00:07;23.60;63.70
44851;DHT22;30583;48.714;9.386;2023-07-24T14:02:32;23.80;63.60
44851;DHT22;30583;48.714;9.386;2023-07-24T14:04:58;23.80;63.80
44851;DHT22;30583;48.714;9.386;2023-07-24T14:07:24;23.70;63.60
44851;DHT22;30583;48.714;9.386;2023-07-24T14:09:50;23.90;63.30
44851;DHT22;30583;48.714;9.386;2023-07-24T14:12:15;23.90;63.20
44851;DHT22;30583;48.714;9.386;2023-07-24T14:14:41;23.80;63.60
44851;DHT22;30583;48.714;9.386;2023-07-24T14:17:07;23.80;64.10
44851;DHT22;30583;48.714;9.386;2023-07-24T14:19:32;23.70;64.60
44851;DHT22;30583;48.714;9.386;2023-07-24T14:21:58;23.60;64.50
44851;DHT22;30583;48.714;9.386;2023-07-24T14:24:24;23.70;64.40
44851;DHT22;30583;48.714;9.386;2023-07-24T14:26:49;23.60;64.40
44851;DHT22;30583;48.714;9.386;2023-07-24T14:29:15;23.60;63.40
44851;DHT22;30583;48.714;9.386;2023-07-24T14:31:43;23.30;62.40
44851;DHT22;30583;48.714;9.386;2023-07-24T14:34:09;23.30;62.90
44851;DHT22;30583;48.714;9.386;2023-07-24T14:36:37;23.30;62.80
44851;DHT22;30583;48.714;9.386;2023-07-24T14:39:03;23.40;63.20
44851;DHT22;30583;48.714;9.386;2023-07-24T14:41:29;23.60;62.80
44851;DHT22;30583;48.714;9.386;2023-07-24T14:43:55;23.60;62.90
44851;DHT22;30583;48.714;9.386;2023-07-24T14:46:20;23.60;63.00
44851;DHT22;30583;48.714;9.386;2023-07-24T14:48:46;23.80;62.90
44851;DHT22;30583;48.714;9.386;2023-07-24T14:51:11;24.10;62.60
44851;DHT22;30583;48.714;9.386;2023-07-24T14:53:37;24.40;61.50
44851;DHT22;30583;48.714;9.386;2023-07-24T14:56:03;24.20;60.80
44851;DHT22;30583;48.714;9.386;2023-07-24T14:58:29;24.30;60.70
44851;DHT22;30583;48.714;9.386;2023-07-24T15:00:55;24.50;60.70
44851;DHT22;30583;48.714;9.386;2023-07-24T15:03:21;24.30;60.20
44851;DHT22;30583;48.714;9.386;2023-07-24T15:05:47;23.90;60.60
44851;DHT22;30583;48.714;9.386;2023-07-24T15:08:12;23.80;61.40
44851;DHT22;30583;48.714;9.386;2023-07-24T15:10:38;23.60;62.10
44851;DHT22;30583;48.714;9.386;2023-07-24T15:13:04;23.50;61.90
44851;DHT22;30583;48.714;9.386;2023-07-24T15:15:29;23.30;63.00
44851;DHT22;30583;48.714;9.386;2023-07-24T15:17:56;23.20;63.30
44851;DHT22;30583;48.714;9.386;2023-07-24T15:20:21;23.30;63.40
44851;DHT22;30583;48.714;9.386;2023-07-24T15:22:47;23.20;63.40
44851;DHT22;30583;48.714;9.386;2023-07-24T15:25:12;23.00;64.30
44851;DHT22;30583;48.714;9.386;2023-07-24T15:27:38;23.00;64.30
44851;DHT22;30583;48.714;9.386;2023-07-24T15:30:04;23.00;64.00